sensor_id;sensor_type;location;lat;lon;timestamp;P1;durP1;ratioP1;P2;durP2;ratioP2
54871;SDS011;43914;57.680;11.982;2022-11-06T00:01:36;9.65;;;1.65;;
54871;SDS011;43914;57.680;11.982;2022-11-06T00:04:04;14.30;;;2.12;;
54871;SDS011;43914;57.680;11.982;2022-11-06T00:06:30;9.65;;;1.67;;
54871;SDS011;43914;57.680;11.982;2022-11-06T00:09:13;8.08;;;1.50;;
54871;SDS011;43914;57.680;11.982;2022-11-06T00:11:42;11.53;;;1.82;;
54871;SDS011;43914;57.680;11.982;2022-11-06T00:14:08;15.10;;;1.60;;
54871;SDS011;43914;57.680;11.982;2022-11-06T00:16:36;11.15;;;1.80;;
54871;SDS011;43914;57.680;11.982;2022-11-06T00:19:03;11.65;;;1.80;;
54871;SDS011;43914;57.680;11.982;2022-11-06T00:21:30;8.08;;;1.45;;
54871;SDS011;43914;57.680;11.982;2022-11-06T00:23:59;9.10;;;1.60;;
54871;SDS011;43914;57.680;11.982;2022-11-06T00:26:26;10.40;;;1.80;;
54871;SDS011;43914;57.680;11.982;2022-11-06T00:28:55;12.45;;;1.65;;
54871;SDS011;43914;57.680;11.982;2022-11-06T00:31:23;11.10;;;1.50;;
54871;SDS011;43914;57.680;11.982;2022-11-06T00:33:53;12.53;;;1.75;;
54871;SDS011;43914;57.680;11.982;2022-11-06T00:36:22;10.82;;;1.80;;
54871;SDS011;43914;57.680;11.982;2022-11-06T00:38:50;8.40;;;1.57;;
54871;SDS011;43914;57.680;11.982;2022-11-06T00:41:18;11.63;;;1.72;;
54871;SDS011;43914;57.680;11.982;2022-11-06T00:43:48;11.97;;;1.80;;
54871;SDS011;43914;57.680;11.982;2022-11-06T00:46:20;9.15;;;1.60;;
54871;SDS011;43914;57.680;11.982;2022-11-06T00:48:46;11.53;;;1.55;;
54871;SDS011;43914;57.680;11.982;2022-11-06T00:51:14;12.78;;;1.87;;
54871;SDS011;43914;57.680;11.982;2022-11-06T00:53:44;19.15;;;1.87;;
54871;SDS011;43914;57.680;11.982;2022-11-06T00:56:18;11.00;;;1.87;;
54871;SDS011;43914;57.680;11.982;2022-11-06T00:58:43;10.45;;;1.82;;
54871;SDS011;43914;57.680;11.982;2022-11-06T01:01:14;14.93;;;1.95;;
54871;SDS011;43914;57.680;11.982;2022-11-06T01:03:51;12.78;;;1.90;;
54871;SDS011;43914;57.680;11.982;2022-11-06T01:06:26;8.95;;;1.50;;
54871;SDS011;43914;57.680;11.982;2022-11-06T01:08:52;15.10;;;1.90;;
54871;SDS011;43914;57.680;11.982;2022-11-06T01:11:20;11.33;;;1.90;;
54871;SDS011;43914;57.680;11.982;2022-11-06T01:13:50;7.87;;;1.40;;
54871;SDS011;43914;57.680;11.982;2022-11-06T01:16:19;9.03;;;1.70;;
54871;SDS011;43914;57.680;11.982;2022-11-06T01:18:46;12.53;;;1.82;;
54871;SDS011;43914;57.680;11.982;2022-11-06T01:21:14;8.80;;;1.98;;
54871;SDS011;43914;57.680;11.982;2022-11-06T01:26:19;10.35;;;2.00;;
54871;SDS011;43914;57.680;11.982;2022-11-06T01:28:46;13.53;;;1.95;;
54871;SDS011;43914;57.680;11.982;2022-11-06T01:31:18;11.40;;;1.95;;
54871;SDS011;43914;57.680;11.982;2022-11-06T01:33:44;12.10;;;2.00;;
54871;SDS011;43914;57.680;11.982;2022-11-06T01:36:13;12.07;;;1.80;;
54871;SDS011;43914;57.680;11.982;2022-11-06T01:38:41;13.30;;;2.05;;
54871;SDS011;43914;57.680;11.982;2022-11-06T01:41:10;8.75;;;1.70;;
54871;SDS011;43914;57.680;11.982;2022-11-06T01:43:45;9.95;;;1.80;;
54871;SDS011;43914;57.680;11.982;2022-11-06T01:46:18;11.85;;;1.70;;
54871;SDS011;43914;57.680;11.982;2022-11-06T01:48:50;10.38;;;1.65;;
54871;SDS011;43914;57.680;11.982;2022-11-06T01:51:30;8.75;;;1.40;;
54871;SDS011;43914;57.680;11.982;2022-11-06T01:54:01;13.05;;;2.10;;
54871;SDS011;43914;57.680;11.982;2022-11-06T01:56:30;9.75;;;1.57;;
54871;SDS011;43914;57.680;11.982;2022-11-06T01:58:56;10.82;;;1.80;;
54871;SDS011;43914;57.680;11.982;2022-11-06T02:01:23;9.20;;;1.70;;
54871;SDS011;43914;57.680;11.982;2022-11-06T02:03:55;10.43;;;1.85;;
54871;SDS011;43914;57.680;11.982;2022-11-06T02:06:26;10.35;;;1.90;;
54871;SDS011;43914;57.680;11.982;2022-11-06T02:08:53;11.15;;;2.00;;
54871;SDS011;43914;57.680;11.982;2022-11-06T02:11:20;9.58;;;1.55;;
54871;SDS011;43914;57.680;11.982;2022-11-06T02:13:53;10.75;;;2.08;;
54871;SDS011;43914;57.680;11.982;2022-11-06T02:16:40;9.85;;;1.80;;
54871;SDS011;43914;57.680;11.982;2022-11-06T02:19:23;15.93;;;2.02;;
54871;SDS011;43914;57.680;11.982;2022-11-06T02:27:51;11.50;;;1.92;;
54871;SDS011;43914;57.680;11.982;2022-11-06T02:30:28;11.33;;;2.17;;
54871;SDS011;43914;57.680;11.982;2022-11-06T02:33:17;13.10;;;2.27;;
54871;SDS011;43914;57.680;11.982;2022-11-06T02:35:55;11.97;;;2.35;;
54871;SDS011;43914;57.680;11.982;2022-11-06T02:38:27;17.48;;;2.85;;
54871;SDS011;43914;57.680;11.982;2022-11-06T02:43:27;17.42;;;2.90;;
54871;SDS011;43914;57.680;11.982;2022-11-06T02:46:23;13.72;;;2.65;;
54871;SDS011;43914;57.680;11.982;2022-11-06T02:49:13;15.18;;;2.70;;
54871;SDS011;43914;57.680;11.982;2022-11-06T02:51:47;10.75;;;2.55;;
54871;SDS011;43914;57.680;11.982;2022-11-06T02:54:17;11.65;;;2.50;;
54871;SDS011;43914;57.680;11.982;2022-11-06T02:56:45;13.32;;;2.70;;
54871;SDS011;43914;57.680;11.982;2022-11-06T02:59:39;13.68;;;3.70;;
54871;SDS011;43914;57.680;11.982;2022-11-06T03:02:13;13.75;;;2.80;;
54871;SDS011;43914;57.680;11.982;2022-11-06T03:04:49;15.48;;;3.22;;
54871;SDS011;43914;57.680;11.982;2022-11-06T03:07:27;20.45;;;3.80;;
54871;SDS011;43914;57.680;11.982;2022-11-06T03:10:01;17.97;;;3.00;;
54871;SDS011;43914;57.680;11.982;2022-11-06T03:12:29;16.80;;;3.02;;
54871;SDS011;43914;57.680;11.982;2022-11-06T03:15:05;15.85;;;3.12;;
54871;SDS011;43914;57.680;11.982;2022-11-06T03:17:59;17.12;;;3.85;;
54871;SDS011;43914;57.680;11.982;2022-11-06T03:20:35;15.75;;;3.60;;
54871;SDS011;43914;57.680;11.982;2022-11-06T03:28:32;14.03;;;3.67;;
54871;SDS011;43914;57.680;11.982;2022-11-06T03:31:06;17.42;;;3.12;;
54871;SDS011;43914;57.680;11.982;2022-11-06T03:36:25;11.80;;;3.05;;
54871;SDS011;43914;57.680;11.982;2022-11-06T03:39:00;12.03;;;2.60;;
54871;SDS011;43914;57.680;11.982;2022-11-06T03:41:35;19.62;;;3.33;;
54871;SDS011;43914;57.680;11.982;2022-11-06T03:44:04;20.68;;;3.17;;
54871;SDS011;43914;57.680;11.982;2022-11-06T03:46:34;15.98;;;3.92;;
54871;SDS011;43914;57.680;11.982;2022-11-06T03:49:04;11.55;;;3.60;;
54871;SDS011;43914;57.680;11.982;2022-11-06T03:51:37;19.70;;;3.72;;
54871;SDS011;43914;57.680;11.982;2022-11-06T03:54:19;16.67;;;3.50;;
54871;SDS011;43914;57.680;11.982;2022-11-06T03:57:20;15.23;;;3.47;;
54871;SDS011;43914;57.680;11.982;2022-11-06T03:59:51;16.50;;;3.30;;
54871;SDS011;43914;57.680;11.982;2022-11-06T04:02:20;11.30;;;3.05;;
54871;SDS011;43914;57.680;11.982;2022-11-06T04:04:52;12.47;;;3.60;;
54871;SDS011;43914;57.680;11.982;2022-11-06T04:07:23;17.95;;;4.30;;
54871;SDS011;43914;57.680;11.982;2022-11-06T04:09:56;16.35;;;3.95;;
54871;SDS011;43914;57.680;11.982;2022-11-06T04:12:45;19.87;;;4.33;;
54871;SDS011;43914;57.680;11.982;2022-11-06T04:15:34;17.23;;;4.50;;
54871;SDS011;43914;57.680;11.982;2022-11-06T04:18:12;18.02;;;4.47;;
54871;SDS011;43914;57.680;11.982;2022-11-06T04:27:18;15.23;;;4.78;;
54871;SDS011;43914;57.680;11.982;2022-11-06T04:30:14;17.85;;;5.12;;
54871;SDS011;43914;57.680;11.982;2022-11-06T04:43:51;15.32;;;5.30;;
54871;SDS011;43914;57.680;11.982;2022-11-06T04:46:38;17.55;;;5.70;;
54871;SDS011;43914;57.680;11.982;2022-11-06T04:49:10;18.05;;;7.17;;
54871;SDS011;43914;57.680;11.982;2022-11-06T04:51:38;17.75;;;6.70;;
54871;SDS011;43914;57.680;11.982;2022-11-06T04:54:08;16.80;;;7.20;;
54871;SDS011;43914;57.680;11.982;2022-11-06T04:56:35;18.65;;;6.53;;
54871;SDS011;43914;57.680;11.982;2022-11-06T04:59:05;17.87;;;7.78;;
54871;SDS011;43914;57.680;11.982;2022-11-06T05:01:31;19.17;;;7.75;;
54871;SDS011;43914;57.680;11.982;2022-11-06T05:04:00;20.60;;;8.18;;
54871;SDS011;43914;57.680;11.982;2022-11-06T05:06:26;17.00;;;7.20;;
54871;SDS011;43914;57.680;11.982;2022-11-06T05:08:52;17.10;;;7.85;;
54871;SDS011;43914;57.680;11.982;2022-11-06T05:11:19;21.40;;;7.33;;
54871;SDS011;43914;57.680;11.982;2022-11-06T05:13:45;18.70;;;7.93;;
54871;SDS011;43914;57.680;11.982;2022-11-06T05:16:11;18.00;;;8.53;;
54871;SDS011;43914;57.680;11.982;2022-11-06T05:18:37;18.07;;;7.58;;
54871;SDS011;43914;57.680;11.982;2022-11-06T05:21:03;17.90;;;7.30;;
54871;SDS011;43914;57.680;11.982;2022-11-06T05:23:48;17.90;;;8.00;;
54871;SDS011;43914;57.680;11.982;2022-11-06T05:26:14;17.70;;;7.97;;
54871;SDS011;43914;57.680;11.982;2022-11-06T05:28:40;19.17;;;7.60;;
54871;SDS011;43914;57.680;11.982;2022-11-06T05:31:06;20.27;;;7.50;;
54871;SDS011;43914;57.680;11.982;2022-11-06T05:33:32;20.07;;;8.50;;
54871;SDS011;43914;57.680;11.982;2022-11-06T05:36:02;15.63;;;7.23;;
54871;SDS011;43914;57.680;11.982;2022-11-06T05:38:30;21.27;;;6.90;;
54871;SDS011;43914;57.680;11.982;2022-11-06T05:40:56;13.32;;;6.42;;
54871;SDS011;43914;57.680;11.982;2022-11-06T05:43:22;14.73;;;6.50;;
54871;SDS011;43914;57.680;11.982;2022-11-06T05:45:49;15.63;;;6.10;;
54871;SDS011;43914;57.680;11.982;2022-11-06T05:48:15;13.55;;;6.28;;
54871;SDS011;43914;57.680;11.982;2022-11-06T05:50:41;14.33;;;6.53;;
54871;SDS011;43914;57.680;11.982;2022-11-06T05:53:07;11.63;;;5.67;;
54871;SDS011;43914;57.680;11.982;2022-11-06T05:55:33;14.90;;;6.10;;
54871;SDS011;43914;57.680;11.982;2022-11-06T05:57:59;12.37;;;5.90;;
54871;SDS011;43914;57.680;11.982;2022-11-06T06:00:24;12.63;;;5.05;;
54871;SDS011;43914;57.680;11.982;2022-11-06T06:02:50;12.30;;;5.20;;
54871;SDS011;43914;57.680;11.982;2022-11-06T06:05:16;12.82;;;4.90;;
54871;SDS011;43914;57.680;11.982;2022-11-06T06:07:43;16.02;;;5.40;;
54871;SDS011;43914;57.680;11.982;2022-11-06T06:10:09;11.83;;;4.92;;
54871;SDS011;43914;57.680;11.982;2022-11-06T06:12:35;13.32;;;4.10;;
54871;SDS011;43914;57.680;11.982;2022-11-06T06:15:03;12.75;;;3.77;;
54871;SDS011;43914;57.680;11.982;2022-11-06T06:17:31;9.50;;;3.33;;
54871;SDS011;43914;57.680;11.982;2022-11-06T06:19:58;8.98;;;2.85;;
54871;SDS011;43914;57.680;11.982;2022-11-06T06:22:23;11.68;;;3.50;;
54871;SDS011;43914;57.680;11.982;2022-11-06T06:24:49;9.23;;;2.77;;
54871;SDS011;43914;57.680;11.982;2022-11-06T06:27:15;10.27;;;2.73;;
54871;SDS011;43914;57.680;11.982;2022-11-06T06:29:41;6.70;;;2.00;;
54871;SDS011;43914;57.680;11.982;2022-11-06T06:32:07;8.93;;;2.17;;
54871;SDS011;43914;57.680;11.982;2022-11-06T06:34:33;5.20;;;1.70;;
54871;SDS011;43914;57.680;11.982;2022-11-06T06:36:59;5.23;;;1.40;;
54871;SDS011;43914;57.680;11.982;2022-11-06T06:39:26;6.20;;;1.40;;
54871;SDS011;43914;57.680;11.982;2022-11-06T06:41:52;6.20;;;1.77;;
54871;SDS011;43914;57.680;11.982;2022-11-06T06:44:17;4.30;;;1.33;;
54871;SDS011;43914;57.680;11.982;2022-11-06T06:46:43;5.23;;;1.17;;
54871;SDS011;43914;57.680;11.982;2022-11-06T06:49:09;3.10;;;0.90;;
54871;SDS011;43914;57.680;11.982;2022-11-06T06:51:36;5.50;;;1.17;;
54871;SDS011;43914;57.680;11.982;2022-11-06T06:54:02;3.47;;;1.03;;
54871;SDS011;43914;57.680;11.982;2022-11-06T06:56:28;6.55;;;1.27;;
54871;SDS011;43914;57.680;11.982;2022-11-06T06:58:54;7.07;;;1.13;;
54871;SDS011;43914;57.680;11.982;2022-11-06T07:01:20;6.20;;;1.50;;
54871;SDS011;43914;57.680;11.982;2022-11-06T07:03:46;5.35;;;1.20;;
54871;SDS011;43914;57.680;11.982;2022-11-06T07:06:12;6.65;;;1.40;;
54871;SDS011;43914;57.680;11.982;2022-11-06T07:08:38;7.08;;;1.40;;
54871;SDS011;43914;57.680;11.982;2022-11-06T07:11:06;5.28;;;1.30;;
54871;SDS011;43914;57.680;11.982;2022-11-06T07:13:36;7.08;;;1.60;;
54871;SDS011;43914;57.680;11.982;2022-11-06T07:16:06;5.95;;;1.45;;
54871;SDS011;43914;57.680;11.982;2022-11-06T07:18:37;6.67;;;1.65;;
54871;SDS011;43914;57.680;11.982;2022-11-06T07:21:05;7.12;;;1.85;;
54871;SDS011;43914;57.680;11.982;2022-11-06T07:23:36;8.08;;;2.00;;
54871;SDS011;43914;57.680;11.982;2022-11-06T07:26:03;7.17;;;2.20;;
54871;SDS011;43914;57.680;11.982;2022-11-06T07:28:30;7.65;;;2.22;;
54871;SDS011;43914;57.680;11.982;2022-11-06T07:30:58;9.33;;;2.83;;
54871;SDS011;43914;57.680;11.982;2022-11-06T07:33:25;12.03;;;3.20;;
54871;SDS011;43914;57.680;11.982;2022-11-06T07:35:52;8.70;;;2.15;;
54871;SDS011;43914;57.680;11.982;2022-11-06T07:38:19;11.08;;;2.95;;
54871;SDS011;43914;57.680;11.982;2022-11-06T07:40:46;12.55;;;3.75;;
54871;SDS011;43914;57.680;11.982;2022-11-06T07:43:12;13.93;;;3.07;;
54871;SDS011;43914;57.680;11.982;2022-11-06T07:45:38;13.80;;;4.00;;
54871;SDS011;43914;57.680;11.982;2022-11-06T07:48:04;12.28;;;3.47;;
54871;SDS011;43914;57.680;11.982;2022-11-06T07:50:31;11.83;;;3.67;;
54871;SDS011;43914;57.680;11.982;2022-11-06T07:53:02;18.00;;;4.50;;
54871;SDS011;43914;57.680;11.982;2022-11-06T07:55:31;15.05;;;3.83;;
54871;SDS011;43914;57.680;11.982;2022-11-06T07:57:57;14.95;;;3.95;;
54871;SDS011;43914;57.680;11.982;2022-11-06T08:00:23;26.57;;;5.37;;
54871;SDS011;43914;57.680;11.982;2022-11-06T08:02:50;19.35;;;5.05;;
54871;SDS011;43914;57.680;11.982;2022-11-06T08:05:17;15.72;;;3.85;;
54871;SDS011;43914;57.680;11.982;2022-11-06T08:07:43;17.37;;;4.87;;
54871;SDS011;43914;57.680;11.982;2022-11-06T08:10:09;20.83;;;4.57;;
54871;SDS011;43914;57.680;11.982;2022-11-06T08:12:35;24.77;;;5.53;;
54871;SDS011;43914;57.680;11.982;2022-11-06T08:15:01;16.40;;;4.20;;
54871;SDS011;43914;57.680;11.982;2022-11-06T08:17:29;20.40;;;4.47;;
54871;SDS011;43914;57.680;11.982;2022-11-06T08:19:55;20.00;;;4.43;;
54871;SDS011;43914;57.680;11.982;2022-11-06T08:22:23;17.82;;;3.92;;
54871;SDS011;43914;57.680;11.982;2022-11-06T08:24:49;18.02;;;5.00;;
54871;SDS011;43914;57.680;11.982;2022-11-06T08:27:15;22.62;;;4.62;;
54871;SDS011;43914;57.680;11.982;2022-11-06T08:29:41;13.70;;;3.40;;
54871;SDS011;43914;57.680;11.982;2022-11-06T08:32:08;22.60;;;4.60;;
54871;SDS011;43914;57.680;11.982;2022-11-06T08:34:34;17.75;;;4.50;;
54871;SDS011;43914;57.680;11.982;2022-11-06T08:37:00;23.83;;;5.00;;
54871;SDS011;43914;57.680;11.982;2022-11-06T08:39:26;23.27;;;4.80;;
54871;SDS011;43914;57.680;11.982;2022-11-06T08:41:52;21.30;;;5.00;;
54871;SDS011;43914;57.680;11.982;2022-11-06T08:44:18;17.20;;;4.20;;
54871;SDS011;43914;57.680;11.982;2022-11-06T08:46:47;15.65;;;3.90;;
54871;SDS011;43914;57.680;11.982;2022-11-06T08:49:13;25.10;;;4.30;;
54871;SDS011;43914;57.680;11.982;2022-11-06T08:51:39;23.55;;;5.00;;
54871;SDS011;43914;57.680;11.982;2022-11-06T08:54:06;21.97;;;4.97;;
54871;SDS011;43914;57.680;11.982;2022-11-06T08:56:31;18.30;;;3.43;;
54871;SDS011;43914;57.680;11.982;2022-11-06T08:58:59;19.62;;;4.70;;
54871;SDS011;43914;57.680;11.982;2022-11-06T09:01:25;27.35;;;5.05;;
54871;SDS011;43914;57.680;11.982;2022-11-06T09:03:52;21.30;;;4.12;;
54871;SDS011;43914;57.680;11.982;2022-11-06T09:06:19;22.32;;;4.22;;
54871;SDS011;43914;57.680;11.982;2022-11-06T09:08:45;20.00;;;3.40;;
54871;SDS011;43914;57.680;11.982;2022-11-06T09:11:11;18.53;;;4.07;;
54871;SDS011;43914;57.680;11.982;2022-11-06T09:13:37;17.60;;;3.55;;
54871;SDS011;43914;57.680;11.982;2022-11-06T09:16:03;23.67;;;3.90;;
54871;SDS011;43914;57.680;11.982;2022-11-06T09:18:30;21.62;;;3.75;;
54871;SDS011;43914;57.680;11.982;2022-11-06T09:20:56;16.75;;;3.08;;
54871;SDS011;43914;57.680;11.982;2022-11-06T09:23:25;19.40;;;3.58;;
54871;SDS011;43914;57.680;11.982;2022-11-06T09:25:55;20.70;;;3.50;;
54871;SDS011;43914;57.680;11.982;2022-11-06T09:28:22;17.95;;;3.40;;
54871;SDS011;43914;57.680;11.982;2022-11-06T09:30:50;16.27;;;3.12;;
54871;SDS011;43914;57.680;11.982;2022-11-06T09:33:16;14.25;;;3.02;;
54871;SDS011;43914;57.680;11.982;2022-11-06T09:35:42;14.00;;;2.67;;
54871;SDS011;43914;57.680;11.982;2022-11-06T09:38:13;14.03;;;2.85;;
54871;SDS011;43914;57.680;11.982;2022-11-06T09:40:47;15.68;;;3.42;;
54871;SDS011;43914;57.680;11.982;2022-11-06T09:43:28;17.35;;;3.60;;
54871;SDS011;43914;57.680;11.982;2022-11-06T09:46:12;17.00;;;3.60;;
54871;SDS011;43914;57.680;11.982;2022-11-06T09:48:53;18.77;;;3.62;;
54871;SDS011;43914;57.680;11.982;2022-11-06T09:54:37;12.88;;;2.47;;
54871;SDS011;43914;57.680;11.982;2022-11-06T09:57:20;12.98;;;2.55;;
54871;SDS011;43914;57.680;11.982;2022-11-06T10:00:03;14.98;;;2.75;;
54871;SDS011;43914;57.680;11.982;2022-11-06T10:05:17;15.65;;;3.08;;
54871;SDS011;43914;57.680;11.982;2022-11-06T10:07:44;16.55;;;3.22;;
54871;SDS011;43914;57.680;11.982;2022-11-06T10:10:15;14.40;;;2.75;;
54871;SDS011;43914;57.680;11.982;2022-11-06T10:13:01;17.75;;;3.52;;
54871;SDS011;43914;57.680;11.982;2022-11-06T10:21:29;15.28;;;3.52;;
54871;SDS011;43914;57.680;11.982;2022-11-06T10:24:22;11.93;;;2.60;;
54871;SDS011;43914;57.680;11.982;2022-11-06T10:26:58;14.58;;;2.90;;
54871;SDS011;43914;57.680;11.982;2022-11-06T10:35:34;16.17;;;2.70;;
54871;SDS011;43914;57.680;11.982;2022-11-06T10:40:55;16.50;;;3.00;;
54871;SDS011;43914;57.680;11.982;2022-11-06T10:48:37;13.55;;;2.35;;
54871;SDS011;43914;57.680;11.982;2022-11-06T10:51:27;12.33;;;2.22;;
54871;SDS011;43914;57.680;11.982;2022-11-06T10:57:24;13.22;;;2.02;;
54871;SDS011;43914;57.680;11.982;2022-11-06T11:00:18;11.33;;;1.90;;
54871;SDS011;43914;57.680;11.982;2022-11-06T11:02:45;9.73;;;2.00;;
54871;SDS011;43914;57.680;11.982;2022-11-06T11:05:23;12.68;;;1.47;;
54871;SDS011;43914;57.680;11.982;2022-11-06T11:07:51;9.80;;;1.70;;
54871;SDS011;43914;57.680;11.982;2022-11-06T11:12:55;11.33;;;1.60;;
54871;SDS011;43914;57.680;11.982;2022-11-06T11:15:29;10.95;;;1.95;;
54871;SDS011;43914;57.680;11.982;2022-11-06T11:18:26;14.35;;;1.67;;
54871;SDS011;43914;57.680;11.982;2022-11-06T11:21:41;9.30;;;1.50;;
54871;SDS011;43914;57.680;11.982;2022-11-06T11:23:42;8.90;;;1.22;;
54871;SDS011;43914;57.680;11.982;2022-11-06T11:26:22;8.60;;;1.57;;
54871;SDS011;43914;57.680;11.982;2022-11-06T11:28:54;7.37;;;1.50;;
54871;SDS011;43914;57.680;11.982;2022-11-06T11:31:27;8.10;;;1.77;;
54871;SDS011;43914;57.680;11.982;2022-11-06T11:33:59;11.45;;;1.50;;
54871;SDS011;43914;57.680;11.982;2022-11-06T11:39:29;6.72;;;1.30;;
54871;SDS011;43914;57.680;11.982;2022-11-06T11:42:43;5.92;;;1.22;;
54871;SDS011;43914;57.680;11.982;2022-11-06T11:47:48;10.95;;;1.60;;
54871;SDS011;43914;57.680;11.982;2022-11-06T11:52:51;10.40;;;1.75;;
54871;SDS011;43914;57.680;11.982;2022-11-06T11:55:37;11.88;;;1.90;;
54871;SDS011;43914;57.680;11.982;2022-11-06T11:58:01;13.62;;;2.33;;
54871;SDS011;43914;57.680;11.982;2022-11-06T12:00:27;9.15;;;1.52;;
54871;SDS011;43914;57.680;11.982;2022-11-06T12:02:55;11.15;;;1.77;;
54871;SDS011;43914;57.680;11.982;2022-11-06T12:05:32;14.30;;;1.60;;
54871;SDS011;43914;57.680;11.982;2022-11-06T12:08:04;9.73;;;1.60;;
54871;SDS011;43914;57.680;11.982;2022-11-06T12:10:35;11.75;;;2.25;;
54871;SDS011;43914;57.680;11.982;2022-11-06T12:13:21;12.20;;;1.70;;
54871;SDS011;43914;57.680;11.982;2022-11-06T12:15:50;16.17;;;1.80;;
54871;SDS011;43914;57.680;11.982;2022-11-06T12:18:27;13.28;;;2.20;;
54871;SDS011;43914;57.680;11.982;2022-11-06T12:21:19;9.15;;;1.60;;
54871;SDS011;43914;57.680;11.982;2022-11-06T12:26:53;10.25;;;1.82;;
54871;SDS011;43914;57.680;11.982;2022-11-06T12:41:02;11.00;;;1.98;;
54871;SDS011;43914;57.680;11.982;2022-11-06T12:43:49;12.18;;;1.98;;
54871;SDS011;43914;57.680;11.982;2022-11-06T12:49:16;11.35;;;1.85;;
54871;SDS011;43914;57.680;11.982;2022-11-06T12:55:28;12.23;;;1.87;;
54871;SDS011;43914;57.680;11.982;2022-11-06T13:09:33;7.37;;;1.57;;
54871;SDS011;43914;57.680;11.982;2022-11-06T13:12:26;12.45;;;1.80;;
54871;SDS011;43914;57.680;11.982;2022-11-06T13:17:54;12.70;;;1.90;;
54871;SDS011;43914;57.680;11.982;2022-11-06T13:23:33;11.83;;;1.90;;
54871;SDS011;43914;57.680;11.982;2022-11-06T13:26:49;11.30;;;1.72;;
54871;SDS011;43914;57.680;11.982;2022-11-06T13:29:01;9.23;;;1.90;;
54871;SDS011;43914;57.680;11.982;2022-11-06T13:31:34;8.35;;;1.87;;
54871;SDS011;43914;57.680;11.982;2022-11-06T13:34:16;18.92;;;2.65;;
54871;SDS011;43914;57.680;11.982;2022-11-06T13:36:48;12.40;;;1.95;;
54871;SDS011;43914;57.680;11.982;2022-11-06T13:39:20;12.33;;;2.10;;
54871;SDS011;43914;57.680;11.982;2022-11-06T13:41:52;15.65;;;2.10;;
54871;SDS011;43914;57.680;11.982;2022-11-06T13:44:20;12.10;;;2.33;;
54871;SDS011;43914;57.680;11.982;2022-11-06T13:52:40;11.43;;;2.27;;
54871;SDS011;43914;57.680;11.982;2022-11-06T13:55:29;11.48;;;2.70;;
54871;SDS011;43914;57.680;11.982;2022-11-06T14:06:19;18.85;;;2.77;;
54871;SDS011;43914;57.680;11.982;2022-11-06T14:08:52;12.93;;;2.33;;
54871;SDS011;43914;57.680;11.982;2022-11-06T14:11:24;13.15;;;2.42;;
54871;SDS011;43914;57.680;11.982;2022-11-06T14:14:00;12.95;;;2.42;;
54871;SDS011;43914;57.680;11.982;2022-11-06T14:16:37;18.37;;;3.00;;
54871;SDS011;43914;57.680;11.982;2022-11-06T14:19:21;17.82;;;3.00;;
54871;SDS011;43914;57.680;11.982;2022-11-06T14:27:01;14.75;;;2.35;;
54871;SDS011;43914;57.680;11.982;2022-11-06T14:40:57;16.30;;;3.25;;
54871;SDS011;43914;57.680;11.982;2022-11-06T14:45:58;13.00;;;2.30;;
54871;SDS011;43914;57.680;11.982;2022-11-06T14:48:35;16.17;;;3.17;;
54871;SDS011;43914;57.680;11.982;2022-11-06T14:51:02;16.52;;;3.10;;
54871;SDS011;43914;57.680;11.982;2022-11-06T14:54:15;21.20;;;3.80;;
54871;SDS011;43914;57.680;11.982;2022-11-06T14:56:25;17.95;;;3.62;;
54871;SDS011;43914;57.680;11.982;2022-11-06T14:58:55;25.05;;;4.22;;
54871;SDS011;43914;57.680;11.982;2022-11-06T15:01:34;21.27;;;3.85;;
54871;SDS011;43914;57.680;11.982;2022-11-06T15:04:05;19.98;;;3.50;;
54871;SDS011;43914;57.680;11.982;2022-11-06T15:06:40;20.77;;;4.37;;
54871;SDS011;43914;57.680;11.982;2022-11-06T15:09:11;22.50;;;4.90;;
54871;SDS011;43914;57.680;11.982;2022-11-06T15:19:33;26.45;;;5.55;;
54871;SDS011;43914;57.680;11.982;2022-11-06T15:24:53;23.77;;;4.83;;
54871;SDS011;43914;57.680;11.982;2022-11-06T15:27:54;22.00;;;4.40;;
54871;SDS011;43914;57.680;11.982;2022-11-06T15:30:30;21.73;;;5.55;;
54871;SDS011;43914;57.680;11.982;2022-11-06T15:33:07;18.82;;;3.95;;
54871;SDS011;43914;57.680;11.982;2022-11-06T15:35:36;25.82;;;4.83;;
54871;SDS011;43914;57.680;11.982;2022-11-06T15:38:20;17.90;;;4.40;;
54871;SDS011;43914;57.680;11.982;2022-11-06T15:40:51;19.25;;;5.03;;
54871;SDS011;43914;57.680;11.982;2022-11-06T15:43:23;17.52;;;4.50;;
54871;SDS011;43914;57.680;11.982;2022-11-06T15:51:54;19.90;;;4.78;;
54871;SDS011;43914;57.680;11.982;2022-11-06T15:54:37;20.35;;;4.67;;
54871;SDS011;43914;57.680;11.982;2022-11-06T15:59:45;20.72;;;5.22;;
54871;SDS011;43914;57.680;11.982;2022-11-06T16:02:13;26.80;;;4.75;;
54871;SDS011;43914;57.680;11.982;2022-11-06T16:04:42;17.32;;;4.15;;
54871;SDS011;43914;57.680;11.982;2022-11-06T16:07:09;14.93;;;4.78;;
54871;SDS011;43914;57.680;11.982;2022-11-06T16:09:37;22.95;;;4.55;;
54871;SDS011;43914;57.680;11.982;2022-11-06T16:12:06;18.42;;;4.60;;
54871;SDS011;43914;57.680;11.982;2022-11-06T16:14:39;22.40;;;4.63;;
54871;SDS011;43914;57.680;11.982;2022-11-06T16:17:09;22.40;;;5.12;;
54871;SDS011;43914;57.680;11.982;2022-11-06T16:19:43;16.65;;;3.70;;
54871;SDS011;43914;57.680;11.982;2022-11-06T16:22:19;23.22;;;4.67;;
54871;SDS011;43914;57.680;11.982;2022-11-06T16:24:49;16.93;;;3.62;;
54871;SDS011;43914;57.680;11.982;2022-11-06T16:27:19;17.82;;;3.83;;
54871;SDS011;43914;57.680;11.982;2022-11-06T16:29:57;21.37;;;4.85;;
54871;SDS011;43914;57.680;11.982;2022-11-06T16:32:28;23.83;;;5.28;;
54871;SDS011;43914;57.680;11.982;2022-11-06T16:35:00;21.62;;;5.10;;
54871;SDS011;43914;57.680;11.982;2022-11-06T16:39:59;21.50;;;5.75;;
54871;SDS011;43914;57.680;11.982;2022-11-06T16:42:29;29.72;;;5.83;;
54871;SDS011;43914;57.680;11.982;2022-11-06T16:50:48;18.27;;;4.72;;
54871;SDS011;43914;57.680;11.982;2022-11-06T16:53:26;25.50;;;5.05;;
54871;SDS011;43914;57.680;11.982;2022-11-06T16:55:56;14.55;;;5.25;;
54871;SDS011;43914;57.680;11.982;2022-11-06T16:58:26;15.13;;;5.58;;
54871;SDS011;43914;57.680;11.982;2022-11-06T17:00:59;18.42;;;5.28;;
54871;SDS011;43914;57.680;11.982;2022-11-06T17:03:32;14.43;;;4.33;;
54871;SDS011;43914;57.680;11.982;2022-11-06T17:06:16;23.42;;;4.47;;
54871;SDS011;43914;57.680;11.982;2022-11-06T17:08:52;13.78;;;4.37;;
54871;SDS011;43914;57.680;11.982;2022-11-06T17:11:32;18.87;;;5.20;;
54871;SDS011;43914;57.680;11.982;2022-11-06T17:13:58;20.55;;;5.03;;
54871;SDS011;43914;57.680;11.982;2022-11-06T17:16:30;15.83;;;5.28;;
54871;SDS011;43914;57.680;11.982;2022-11-06T17:19:03;19.00;;;4.53;;
54871;SDS011;43914;57.680;11.982;2022-11-06T17:21:29;18.87;;;5.33;;
54871;SDS011;43914;57.680;11.982;2022-11-06T17:23:54;17.50;;;4.53;;
54871;SDS011;43914;57.680;11.982;2022-11-06T17:26:24;12.73;;;4.08;;
54871;SDS011;43914;57.680;11.982;2022-11-06T17:28:54;17.95;;;4.70;;
54871;SDS011;43914;57.680;11.982;2022-11-06T17:31:25;15.43;;;4.80;;
54871;SDS011;43914;57.680;11.982;2022-11-06T17:33:52;15.10;;;4.17;;
54871;SDS011;43914;57.680;11.982;2022-11-06T17:38:50;20.57;;;4.47;;
54871;SDS011;43914;57.680;11.982;2022-11-06T17:41:21;16.10;;;4.53;;
54871;SDS011;43914;57.680;11.982;2022-11-06T17:46:38;16.90;;;5.03;;
54871;SDS011;43914;57.680;11.982;2022-11-06T17:49:06;17.62;;;4.72;;
54871;SDS011;43914;57.680;11.982;2022-11-06T17:51:33;16.60;;;4.00;;